Monday, July 6, 2015, 3:21 AM EDT

KDYL, Doylestown Airport

Location: Doylestown, PA, United States Lat: 40.333
Local Time: 3:21 AM EDT ( 7:21 GMT) Lon: -75.117
Time Zone: US/Eastern Elev: 393 ft

Show me the last for .
Show Decoded

2015-07-06 02:54 METAR KDYL 060654Z AUTO 00000KT 10SM CLR 19/18 A3015 RMK AO2 SLP205 T01940183 =
2015-07-06 00:54 METAR KDYL 060454Z AUTO 00000KT 10SM CLR 19/18 A3015 RMK AO2 SLP206 T01940183
                 402780172 =
2015-07-05 23:54 METAR KDYL 060354Z AUTO 00000KT 10SM CLR 19/18 A3015 RMK AO2 SLP205 T01940183 =
2015-07-05 22:54 METAR KDYL 060254Z AUTO 00000KT 10SM CLR 20/18 A3015 RMK AO2 SLP204 T02000183
                 51008 =
2015-07-05 21:54 METAR KDYL 060154Z AUTO 00000KT 10SM CLR 21/18 A3014 RMK AO2 SLP202 T02110183 =
2015-07-05 19:54 METAR KDYL 052354Z AUTO 30003KT 10SM CLR 25/18 A3012 RMK AO2 SLP195 T02500178
                 10278 20250 53004 =
2015-07-05 18:54 METAR KDYL 052254Z AUTO 29004KT 10SM CLR 26/17 A3011 RMK AO2 SLP192 T02560172 =
2015-07-05 17:54 METAR KDYL 052154Z AUTO 29003KT 10SM CLR 27/17 A3011 RMK AO2 SLP192 T02670167 =
2015-07-05 15:54 METAR KDYL 051954Z AUTO 30004KT 10SM CLR 27/17 A3012 RMK AO2 SLP195 T02670167 =
2015-07-05 14:54 METAR KDYL 051854Z AUTO 29005KT 10SM SCT038 27/17 A3013 RMK AO2 SLP197 T02670167
                 =
2015-07-05 13:54 METAR KDYL 051754Z AUTO 00000KT 10SM FEW035 26/16 A3014 RMK AO2 SLP201 T02560161
                 10261 20194 56006 =
2015-07-05 12:54 METAR KDYL 051654Z AUTO 00000KT 10SM BKN032 25/17 A3015 RMK AO2 SLP204 T02500167
                 =
2015-07-05 11:54 METAR KDYL 051554Z AUTO 00000KT 10SM CLR 24/17 A3015 RMK AO2 SLP205 T02390172 =
2015-07-05 10:54 METAR KDYL 051454Z AUTO 30004KT 10SM SCT023 23/17 A3016 RMK AO2 SLP208 T02330172
                 51011 =
2015-07-05 09:54 METAR KDYL 051354Z AUTO 00000KT 10SM CLR 22/17 A3015 RMK AO2 SLP205 T02220172 =
2015-07-05 08:54 METAR KDYL 051254Z AUTO 31003KT 10SM CLR 21/17 A3014 RMK AO2 SLP204 T02060172 =
2015-07-05 07:54 METAR KDYL 051154Z AUTO 29004KT 10SM CLR 19/17 A3012 RMK AO2 SLP197 70002
                 T01940172 10194 20172 53016 =
2015-07-05 05:54 METAR KDYL 050954Z AUTO 00000KT 10SM SCT032 18/17 A3008 RMK AO2 SLP182 T01780167
                 =
2015-07-05 04:54 METAR KDYL 050854Z AUTO 31003KT 10SM OVC032 19/16 A3008 RMK AO2 SLP181 T01890161
                 53006 =
2015-07-05 03:54 METAR KDYL 050754Z AUTO 00000KT 10SM OVC032 18/16 A3006 RMK AO2 SLP176 T01830161
                 =

Support USWX by starting your Amazon purchase here.